Kivalina, AK

21:05 AKST le 28 novembre 2014 (GMT -0900)
Wien Memorial | Change Station
CLOSE
Current Station
Aéroport
Location: Kotzebue,
Altitude: 16 ft
Stations météo à proximité

Alt. 16 ft 66.88 °N, 162.60 °W | Updated 12 minutes ago

Overcast
Couvert
17 ° F
Paraît 0 ° F
N
22
Vent Variable Vent de ESE

Aujourd'hui
Haut(e) -- | Bas -- ° F
--% Risque de précip.
Hier
Haut(e) -- | Bas -- ° F
Precip. -- pouce
12:05 PM 3:19 PM
Lune montante, 48% visible
Pression 30.05 pouce
Visibilité 10.0 Miles terrestres
Nuages Couvert 3400 ft
Refroidissement éolien 0 ° F
Point de rosée 12 ° F
Humidité 81%
Précipitations 0.00 pouce
Profondeur de la couche neigeuse Non disponible.
UV 0 sur 12
Pollen Non disponible.
Qualité de l'air Non disponible.
Flu Activity Non disponible.
METAR PAOT 290553Z 11019KT 10SM OVC034 M08/M11 A3005 RMK AO2 SLP176 T10831111 11083 21089 50001 $

More Conditions Fewer Conditions

Pression 30.05 pouce
Visibilité 10.0 Miles terrestres
Nuages Couvert 3400 ft
Refroidissement éolien 0 ° F
Point de rosée 12 ° F
Humidité 81%
Précipitations 0.00 pouce
Profondeur de la couche neigeuse Non disponible.
UV 0 sur 12
Pollen Non disponible.
Qualité de l'air Non disponible.
Flu Activity Non disponible.
METAR PAOT 290553Z 11019KT 10SM OVC034 M08/M11 A3005 RMK AO2 SLP176 T10831111 11083 21089 50001 $

More Conditions Fewer Conditions

10-Day Weather Forecast

Almanac

Astronomie

Nov. 28, 2014 Lever Coucher
Temps réel
Crépuscule civil
Crépuscule nautique
Crépuscule astronomique
Lune
Durée de lumière visible
Longueur du jour
Tomorrow will be .
, % of the Moon is Illuminated

Extrêmes aujourd'hui

State Highs State Lows

Community

WunderPhotos

Upload Photos

1,774,424 Photos téléchargées !

WunderBlogs® & News

Nearby

Qualité de l'air

  Qualité de l'air Indice de la qualité de l'air Polluant
Not available.

Épaisseur de neige

Station Depth Altitude

Activité sismique

Ville Distance Mag. Time & Date
Minimum magnitude displayed is 2.5.

Températures des eaux côtières

Lieu Température

Stations météo à proximité